createdAt,value
2023-03-29T00:02:25.240Z,95585.59
2023-03-29T00:04:51.779Z,95577.47
2023-03-29T00:07:18.262Z,95571.19
2023-03-29T00:09:44.766Z,95579.88
2023-03-29T00:12:12.361Z,95592.44
2023-03-29T00:14:38.862Z,95603.56
2023-03-29T00:17:05.718Z,95617.59
2023-03-29T00:19:32.353Z,95615.97
2023-03-29T00:21:58.830Z,95609.25
2023-03-29T00:24:25.327Z,95597.28
2023-03-29T00:26:51.966Z,95602.16
2023-03-29T00:29:18.471Z,95598.84
2023-03-29T00:31:44.977Z,95605.97
2023-03-29T00:34:11.664Z,95596.69
2023-03-29T00:36:38.138Z,95588.66
2023-03-29T00:39:04.711Z,95596.72
2023-03-29T00:41:31.310Z,95587.84
2023-03-29T00:43:59.952Z,95580.56
2023-03-29T00:46:28.036Z,95587.25
2023-03-29T00:48:58.350Z,95579.09
2023-03-29T00:51:25.136Z,95587.66
2023-03-29T00:53:56.404Z,95562.09
2023-03-29T00:56:43.789Z,95559.09
2023-03-29T00:59:13.778Z,95573.25
2023-03-29T01:01:48.334Z,95563.03
2023-03-29T01:04:23.872Z,95568.19
2023-03-29T01:06:57.177Z,95571.38
2023-03-29T01:09:24.740Z,95556.44
2023-03-29T01:11:54.317Z,95546.69
2023-03-29T01:14:31.938Z,95556.91
2023-03-29T01:16:58.471Z,95535.41
2023-03-29T01:19:28.622Z,95540.66
2023-03-29T01:22:05.282Z,95545.16
2023-03-29T01:24:46.288Z,95542.75
2023-03-29T01:27:19.506Z,95539.47
2023-03-29T01:29:50.769Z,95551.47
2023-03-29T01:32:24.620Z,95540.03
2023-03-29T01:35:00.846Z,95542.75
2023-03-29T01:37:32.071Z,95543.88
2023-03-29T01:39:58.533Z,95531.75
2023-03-29T01:42:46.165Z,95522.81
2023-03-29T01:45:25.271Z,95524.84
2023-03-29T01:48:01.341Z,95528.06
2023-03-29T01:50:53.006Z,95531.75
2023-03-29T01:53:34.234Z,95562.44
2023-03-29T01:56:06.669Z,95585.91
2023-03-29T01:58:36.729Z,95577.84
2023-03-29T02:01:04.358Z,95565.06
2023-03-29T02:03:32.950Z,95579.69
2023-03-29T02:06:00.239Z,95577.78
2023-03-29T02:09:40.981Z,95570.44
2023-03-29T02:12:08.444Z,95560.31
2023-03-29T02:15:19.836Z,95539.47
2023-03-29T02:17:48.157Z,95542.78
2023-03-29T02:20:32.488Z,95538.97
2023-03-29T02:23:07.192Z,95542.59
2023-03-29T02:25:34.427Z,95547.19
2023-03-29T02:28:01.524Z,95569.41
2023-03-29T02:30:32.816Z,95575.41
2023-03-29T02:33:06.736Z,95558.88
2023-03-29T02:35:36.435Z,95550.47
2023-03-29T02:38:06.435Z,95557.88
2023-03-29T02:40:33.255Z,95580.56
2023-03-29T02:43:01.857Z,95566.13
2023-03-29T02:45:28.947Z,95558.75
2023-03-29T02:47:57.538Z,95564.03
2023-03-29T02:50:26.029Z,95564.59
2023-03-29T02:53:01.948Z,95559.34
2023-03-29T02:55:29.430Z,95533.84
2023-03-29T02:57:55.941Z,95556.38
2023-03-29T03:00:22.593Z,95574.22
2023-03-29T03:02:49.251Z,95572.06
2023-03-29T03:05:16.209Z,95561.09
2023-03-29T03:07:42.679Z,95558.16
2023-03-29T03:10:10.047Z,95553.97
2023-03-29T03:12:36.870Z,95548.56
2023-03-29T03:15:04.972Z,95542.41
2023-03-29T03:17:32.384Z,95542.00
2023-03-29T03:19:59.227Z,95521.84
2023-03-29T03:22:26.182Z,95521.66
2023-03-29T03:24:52.690Z,95541.94
2023-03-29T03:27:19.281Z,95545.22
2023-03-29T03:29:45.767Z,95543.25
2023-03-29T03:32:12.273Z,95559.84
2023-03-29T03:34:38.989Z,95588.34
2023-03-29T03:37:05.474Z,95592.66
2023-03-29T03:39:31.960Z,95569.94
2023-03-29T03:41:59.467Z,95555.78
2023-03-29T03:44:25.953Z,95538.28
2023-03-29T03:46:52.971Z,95529.63
2023-03-29T03:49:19.432Z,95528.09
2023-03-29T03:51:45.918Z,95506.09
2023-03-29T03:54:12.524Z,95518.22
2023-03-29T03:56:39.029Z,95524.50
2023-03-29T03:59:08.646Z,95524.34
2023-03-29T04:01:35.099Z,95510.38
2023-03-29T04:04:01.783Z,95508.16
2023-03-29T04:06:28.355Z,95517.88
2023-03-29T04:08:54.876Z,95525.94
2023-03-29T04:11:21.348Z,95519.38
2023-03-29T04:13:47.872Z,95514.09
2023-03-29T04:16:14.418Z,95518.09
2023-03-29T04:18:41.018Z,95519.22
2023-03-29T04:21:07.831Z,95526.97
2023-03-29T04:23:36.051Z,95519.22
2023-03-29T04:26:02.519Z,95521.06
2023-03-29T04:28:28.999Z,95529.59
2023-03-29T04:30:55.485Z,95534.06
2023-03-29T04:33:22.025Z,95531.19
2023-03-29T04:35:48.633Z,95520.94
2023-03-29T04:38:15.124Z,95515.59
2023-03-29T04:40:41.702Z,95508.69
2023-03-29T04:43:08.212Z,95520.81
2023-03-29T04:45:34.829Z,95512.75
2023-03-29T04:48:01.327Z,95511.50
2023-03-29T04:50:28.161Z,95517.59
2023-03-29T04:52:54.652Z,95513.38
2023-03-29T04:55:21.145Z,95511.09
2023-03-29T04:57:47.613Z,95516.50
2023-03-29T05:00:14.615Z,95520.31
2023-03-29T05:02:43.041Z,95522.97
2023-03-29T05:05:10.550Z,95524.09
2023-03-29T05:07:37.377Z,95517.53
2023-03-29T05:10:04.330Z,95517.66
2023-03-29T05:12:30.918Z,95503.72
2023-03-29T05:14:57.440Z,95510.59
2023-03-29T05:17:24.078Z,95507.47
2023-03-29T05:19:52.767Z,95508.28
2023-03-29T05:22:19.361Z,95508.38
2023-03-29T05:24:45.857Z,95508.44
2023-03-29T05:27:12.429Z,95507.28
2023-03-29T05:29:39.000Z,95505.78
2023-03-29T05:32:05.672Z,95499.06
2023-03-29T05:34:32.184Z,95501.84
2023-03-29T05:36:58.731Z,95510.81
2023-03-29T05:39:25.268Z,95512.16
2023-03-29T05:41:51.750Z,95504.97
2023-03-29T05:44:18.298Z,95506.91
2023-03-29T05:46:44.767Z,95507.13
2023-03-29T05:49:11.328Z,95505.13
2023-03-29T05:51:37.979Z,95508.25
2023-03-29T05:54:04.733Z,95509.78
2023-03-29T05:56:31.265Z,95521.94
2023-03-29T05:58:57.763Z,95514.72
2023-03-29T06:01:24.362Z,95522.34
2023-03-29T06:03:51.928Z,95531.16
2023-03-29T06:06:18.573Z,95524.34
2023-03-29T06:08:45.252Z,95524.72
2023-03-29T06:11:12.557Z,95533.03
2023-03-29T06:13:39.252Z,95528.56
2023-03-29T06:16:08.834Z,95528.56
2023-03-29T06:18:35.625Z,95523.38
2023-03-29T06:21:02.430Z,95528.19
2023-03-29T06:23:29.488Z,95536.25
2023-03-29T06:25:56.193Z,95528.41
2023-03-29T06:28:23.370Z,95544.16
2023-03-29T06:30:50.242Z,95544.22
2023-03-29T06:33:16.954Z,95544.47
2023-03-29T06:35:45.750Z,95536.34
2023-03-29T06:38:12.311Z,95540.50
2023-03-29T06:40:38.820Z,95549.97
2023-03-29T06:43:05.814Z,95542.22
2023-03-29T06:45:34.676Z,95548.81
2023-03-29T06:48:01.852Z,95552.47
2023-03-29T06:50:28.824Z,95544.81
2023-03-29T06:52:55.423Z,95547.47
2023-03-29T06:55:22.023Z,95549.69
2023-03-29T06:57:48.616Z,95554.06
2023-03-29T07:00:15.822Z,95547.16
2023-03-29T07:02:42.522Z,95544.47
2023-03-29T07:05:09.861Z,95533.00
2023-03-29T07:07:36.401Z,95541.91
2023-03-29T07:10:02.881Z,95546.41
2023-03-29T07:12:29.708Z,95544.91
2023-03-29T07:14:56.234Z,95548.97
2023-03-29T07:17:22.841Z,95562.94
2023-03-29T07:19:49.385Z,95560.97
2023-03-29T07:22:15.966Z,95569.31
2023-03-29T07:24:42.762Z,95584.56
2023-03-29T07:27:09.851Z,95582.97
2023-03-29T07:29:36.413Z,95578.97
2023-03-29T07:32:02.976Z,95587.09
2023-03-29T07:34:29.446Z,95581.34
2023-03-29T07:36:55.925Z,95583.22
2023-03-29T07:39:22.446Z,95584.66
2023-03-29T07:41:48.999Z,95589.72
2023-03-29T07:44:15.497Z,95585.53
2023-03-29T07:46:42.003Z,95588.31
2023-03-29T07:49:08.535Z,95584.63
2023-03-29T07:51:35.066Z,95582.16
2023-03-29T07:54:01.535Z,95583.13
2023-03-29T07:56:28.011Z,95576.44
2023-03-29T07:58:54.498Z,95575.56
2023-03-29T08:01:21.085Z,95562.31
2023-03-29T08:03:48.359Z,95577.16
2023-03-29T08:06:14.963Z,95576.41
2023-03-29T08:08:41.528Z,95574.25
2023-03-29T08:11:08.034Z,95586.50
2023-03-29T08:13:34.526Z,95583.13
2023-03-29T08:16:01.099Z,95591.19
2023-03-29T08:18:27.706Z,95592.06
2023-03-29T08:20:54.207Z,95596.38
2023-03-29T08:23:20.706Z,95600.66
2023-03-29T08:25:47.196Z,95610.03
2023-03-29T08:28:13.729Z,95605.09
2023-03-29T08:30:40.317Z,95607.44
2023-03-29T08:33:06.859Z,95595.16
2023-03-29T08:35:33.395Z,95598.91
2023-03-29T08:38:00.055Z,95599.56
2023-03-29T08:40:28.190Z,95582.50
2023-03-29T08:43:05.633Z,95591.53
2023-03-29T08:45:44.732Z,95583.69
2023-03-29T08:48:23.813Z,95586.84
2023-03-29T08:50:53.076Z,95587.34
2023-03-29T08:53:19.522Z,95591.94
2023-03-29T08:55:47.947Z,95596.81
2023-03-29T08:58:17.942Z,95600.00
2023-03-29T09:00:46.071Z,95597.91
2023-03-29T09:03:29.100Z,95596.69
2023-03-29T09:06:04.770Z,95597.63
2023-03-29T09:08:31.369Z,95592.66
2023-03-29T09:11:09.676Z,95595.50
2023-03-29T09:13:46.240Z,95586.41
2023-03-29T09:16:18.745Z,95594.94
2023-03-29T09:19:06.868Z,95588.34
2023-03-29T09:21:33.373Z,95590.50
2023-03-29T09:24:18.370Z,95596.31
2023-03-29T09:26:48.782Z,95590.97
2023-03-29T09:29:47.697Z,95596.22
2023-03-29T09:32:31.925Z,95596.28
2023-03-29T09:35:25.395Z,95587.50
2023-03-29T09:37:54.236Z,95585.25
2023-03-29T09:40:25.169Z,95597.44
2023-03-29T09:42:52.877Z,95582.63
2023-03-29T09:45:19.362Z,95584.81
2023-03-29T09:47:58.407Z,95586.13
2023-03-29T09:50:32.464Z,95593.13
2023-03-29T09:52:59.402Z,95589.94
2023-03-29T09:55:28.488Z,95579.34
2023-03-29T09:57:58.792Z,95592.25
2023-03-29T10:00:25.612Z,95591.50
2023-03-29T10:02:57.370Z,95588.72
2023-03-29T10:05:25.619Z,95577.63
2023-03-29T10:07:54.481Z,95582.63
2023-03-29T10:10:22.959Z,95574.56
2023-03-29T10:12:51.423Z,95581.25
2023-03-29T10:15:29.272Z,95583.75
2023-03-29T10:18:07.484Z,95581.84
2023-03-29T10:20:39.365Z,95581.50
2023-03-29T10:23:08.131Z,95585.56
2023-03-29T10:28:06.246Z,95582.38
2023-03-29T10:30:35.452Z,95573.50
2023-03-29T10:33:02.130Z,95576.78
2023-03-29T10:35:39.376Z,95576.03
2023-03-29T10:38:11.500Z,95578.94
2023-03-29T10:40:48.264Z,95568.09
2023-03-29T10:43:17.792Z,95578.34
2023-03-29T10:45:48.381Z,95573.00
2023-03-29T10:48:16.721Z,95588.06
2023-03-29T10:50:48.873Z,95590.84
2023-03-29T10:53:26.597Z,95589.63
2023-03-29T10:56:03.002Z,95580.91
2023-03-29T10:58:54.890Z,95553.84
2023-03-29T11:01:31.865Z,95556.09
2023-03-29T11:04:01.405Z,95590.00
2023-03-29T11:06:34.978Z,95582.00
2023-03-29T11:09:07.129Z,95572.31
2023-03-29T11:12:08.283Z,95562.03
2023-03-29T11:14:47.457Z,95554.44
2023-03-29T11:17:31.271Z,95570.34
2023-03-29T11:20:06.191Z,95576.38
2023-03-29T11:22:44.522Z,95566.03
2023-03-29T11:25:17.041Z,95552.56
2023-03-29T11:28:20.544Z,95558.03
2023-03-29T11:30:53.345Z,95545.50
2023-03-29T11:33:32.275Z,95561.94
2023-03-29T11:36:04.998Z,95576.97
2023-03-29T11:38:31.504Z,95568.84
2023-03-29T11:41:01.280Z,95555.47
2023-03-29T11:43:32.972Z,95558.81
2023-03-29T11:46:34.842Z,95551.28
2023-03-29T11:49:06.409Z,95561.38
2023-03-29T11:51:38.055Z,95557.47
2023-03-29T11:54:15.291Z,95566.06
2023-03-29T11:56:47.754Z,95563.19
2023-03-29T11:59:35.905Z,95555.41
2023-03-29T12:02:29.488Z,95561.25
2023-03-29T12:04:59.019Z,95545.63
2023-03-29T12:07:44.067Z,95537.59
2023-03-29T12:10:19.675Z,95529.22
2023-03-29T12:12:55.385Z,95523.69
2023-03-29T12:15:24.605Z,95532.91
2023-03-29T12:18:06.382Z,95538.50
2023-03-29T12:20:36.311Z,95526.34
2023-03-29T12:23:02.747Z,95517.19
2023-03-29T12:25:59.618Z,95515.50
2023-03-29T12:28:51.030Z,95511.38
2023-03-29T12:31:23.508Z,95521.50
2023-03-29T12:34:01.899Z,95507.13
2023-03-29T12:37:14.878Z,95494.53
2023-03-29T12:39:41.473Z,95496.88
2023-03-29T12:42:19.586Z,95506.66
2023-03-29T12:44:51.060Z,95512.00
2023-03-29T12:47:21.094Z,95514.34
2023-03-29T12:49:47.776Z,95509.31
2023-03-29T12:52:33.949Z,95507.75
2023-03-29T12:55:41.772Z,95502.91
2023-03-29T12:58:24.626Z,95490.25
2023-03-29T13:01:06.005Z,95500.22
2023-03-29T13:03:47.637Z,95494.59
2023-03-29T13:06:34.678Z,95489.22
2023-03-29T13:09:22.789Z,95480.25
2023-03-29T13:11:57.521Z,95487.72
2023-03-29T13:14:27.729Z,95495.81
2023-03-29T13:17:15.591Z,95493.09
2023-03-29T13:19:59.746Z,95473.78
2023-03-29T13:22:53.329Z,95471.75
2023-03-29T13:25:41.578Z,95473.34
2023-03-29T13:28:30.180Z,95470.06
2023-03-29T13:31:02.982Z,95470.13
2023-03-29T13:34:02.131Z,95459.41
2023-03-29T13:37:06.257Z,95456.72
2023-03-29T13:39:34.836Z,95456.69
2023-03-29T13:42:23.166Z,95454.84
2023-03-29T13:44:51.662Z,95455.38
2023-03-29T13:47:37.198Z,95442.69
2023-03-29T13:50:09.971Z,95444.72
2023-03-29T13:52:41.178Z,95439.09
2023-03-29T13:55:14.788Z,95444.75
2023-03-29T13:57:51.706Z,95436.72
2023-03-29T14:00:18.844Z,95439.91
2023-03-29T14:02:58.237Z,95440.53
2023-03-29T14:05:32.207Z,95429.97
2023-03-29T14:08:08.140Z,95421.69
2023-03-29T14:10:41.076Z,95421.38
2023-03-29T14:13:12.658Z,95424.25
2023-03-29T14:16:03.416Z,95415.38
2023-03-29T14:18:36.539Z,95416.69
2023-03-29T14:21:03.506Z,95416.63
2023-03-29T14:23:32.532Z,95407.88
2023-03-29T14:26:21.498Z,95400.78
2023-03-29T14:28:49.415Z,95402.69
2023-03-29T14:31:45.178Z,95406.00
2023-03-29T14:34:14.701Z,95398.13
2023-03-29T14:36:47.553Z,95401.81
2023-03-29T14:39:17.627Z,95406.66
2023-03-29T14:41:55.734Z,95397.25
2023-03-29T14:44:25.148Z,95390.78
2023-03-29T14:46:51.876Z,95394.03
2023-03-29T14:49:19.741Z,95386.47
2023-03-29T14:51:46.807Z,95381.50
2023-03-29T14:54:27.865Z,95382.31
2023-03-29T14:56:55.144Z,95373.16
2023-03-29T14:59:42.536Z,95373.94
2023-03-29T15:02:28.812Z,95361.41
2023-03-29T15:05:03.254Z,95372.41
2023-03-29T15:07:30.784Z,95361.13
2023-03-29T15:09:58.371Z,95360.00
2023-03-29T15:12:25.419Z,95366.88
2023-03-29T15:14:52.624Z,95361.25
2023-03-29T15:17:47.633Z,95351.75
2023-03-29T15:20:29.865Z,95355.25
2023-03-29T15:23:07.919Z,95355.41
2023-03-29T15:25:42.159Z,95349.63
2023-03-29T15:28:24.890Z,95348.53
2023-03-29T15:31:04.737Z,95334.13
2023-03-29T15:33:36.971Z,95340.06
2023-03-29T15:36:05.283Z,95338.38
2023-03-29T15:38:43.246Z,95335.41
2023-03-29T15:41:12.869Z,95341.66
2023-03-29T15:43:39.399Z,95336.56
2023-03-29T15:46:06.156Z,95331.53
2023-03-29T15:48:32.798Z,95332.38
2023-03-29T15:51:01.942Z,95321.81
2023-03-29T15:53:30.383Z,95321.72
2023-03-29T15:56:00.352Z,95326.47
2023-03-29T15:58:29.727Z,95314.59
2023-03-29T16:01:00.210Z,95316.69
2023-03-29T16:03:26.735Z,95313.47
2023-03-29T16:05:53.520Z,95313.50
2023-03-29T16:08:44.531Z,95306.56
2023-03-29T16:11:11.087Z,95303.53
2023-03-29T16:16:18.994Z,95302.94
2023-03-29T16:18:47.778Z,95295.47
2023-03-29T16:21:16.413Z,95300.94
2023-03-29T16:23:45.924Z,95294.22
2023-03-29T16:26:13.971Z,95299.84
2023-03-29T16:28:43.709Z,95289.97
2023-03-29T16:31:11.986Z,95289.72
2023-03-29T16:33:39.527Z,95295.63
2023-03-29T16:39:15.822Z,95283.94
2023-03-29T16:41:43.106Z,95285.56
2023-03-29T16:44:15.609Z,95283.25
2023-03-29T16:46:42.176Z,95279.22
2023-03-29T16:49:12.779Z,95278.16
2023-03-29T16:51:39.371Z,95268.25
2023-03-29T16:54:06.120Z,95264.78
2023-03-29T16:56:32.629Z,95273.38
2023-03-29T16:58:59.117Z,95276.56
2023-03-29T17:01:25.734Z,95270.69
2023-03-29T17:03:52.299Z,95277.13
2023-03-29T17:06:18.869Z,95265.06
2023-03-29T17:08:45.465Z,95266.41
2023-03-29T17:11:12.044Z,95264.00
2023-03-29T17:13:38.598Z,95258.84
2023-03-29T17:16:05.759Z,95268.75
2023-03-29T17:18:32.537Z,95281.38
2023-03-29T17:20:59.128Z,95285.41
2023-03-29T17:23:28.547Z,95287.00
2023-03-29T17:25:55.438Z,95283.00
2023-03-29T17:28:22.733Z,95277.63
2023-03-29T17:30:49.381Z,95283.16
2023-03-29T17:33:16.303Z,95282.78
2023-03-29T17:35:44.143Z,95274.41
2023-03-29T17:38:11.440Z,95271.81
2023-03-29T17:40:38.182Z,95277.22
2023-03-29T17:43:04.905Z,95274.31
2023-03-29T17:45:31.407Z,95273.78
2023-03-29T17:47:58.412Z,95279.13
2023-03-29T17:50:25.153Z,95269.97
2023-03-29T17:52:51.714Z,95272.69
2023-03-29T17:55:18.548Z,95273.00
2023-03-29T17:57:45.086Z,95267.63
2023-03-29T18:00:13.479Z,95264.88
2023-03-29T18:02:40.891Z,95268.03
2023-03-29T18:05:09.541Z,95275.53
2023-03-29T18:07:38.314Z,95273.69
2023-03-29T18:10:05.280Z,95273.66
2023-03-29T18:13:31.434Z,95269.97
2023-03-29T18:15:58.599Z,95259.25
2023-03-29T18:18:25.272Z,95257.66
2023-03-29T18:20:51.937Z,95269.44
2023-03-29T18:24:05.991Z,95276.94
2023-03-29T18:26:32.786Z,95279.78
2023-03-29T18:28:59.343Z,95281.06
2023-03-29T18:31:25.976Z,95289.91
2023-03-29T18:37:10.525Z,95268.09
2023-03-29T18:42:43.240Z,95260.69
2023-03-29T18:45:10.284Z,95269.03
2023-03-29T18:47:37.949Z,95274.22
2023-03-29T18:50:04.890Z,95273.72
2023-03-29T18:52:31.408Z,95267.88
2023-03-29T18:54:57.926Z,95272.63
2023-03-29T18:57:24.534Z,95272.13
2023-03-29T18:59:51.301Z,95289.28
2023-03-29T19:02:17.958Z,95276.19
2023-03-29T19:04:44.586Z,95284.94
2023-03-29T19:07:11.251Z,95299.88
2023-03-29T19:09:37.761Z,95296.44
2023-03-29T19:12:06.918Z,95298.41
2023-03-29T19:14:33.534Z,95296.06
2023-03-29T19:17:00.058Z,95289.28
2023-03-29T19:19:27.750Z,95293.50
2023-03-29T19:21:54.320Z,95295.38
2023-03-29T19:24:20.945Z,95295.38
2023-03-29T19:26:47.565Z,95291.22
2023-03-29T19:29:14.066Z,95306.09
2023-03-29T19:31:49.974Z,95305.63
2023-03-29T19:34:16.561Z,95302.72
2023-03-29T19:37:06.134Z,95299.84
2023-03-29T19:39:32.681Z,95302.09
2023-03-29T19:41:59.293Z,95309.19
2023-03-29T19:44:25.786Z,95308.56
2023-03-29T19:46:52.400Z,95294.56
2023-03-29T19:49:18.973Z,95296.53
2023-03-29T19:51:45.610Z,95298.47
2023-03-29T19:54:14.104Z,95294.47
2023-03-29T19:56:40.872Z,95289.06
2023-03-29T19:59:07.476Z,95294.41
2023-03-29T20:01:34.121Z,95286.03
2023-03-29T20:04:00.716Z,95277.88
2023-03-29T20:09:26.622Z,95281.25
2023-03-29T20:11:53.300Z,95273.81
2023-03-29T20:14:20.113Z,95271.81
2023-03-29T20:16:52.237Z,95279.00
2023-03-29T20:19:19.993Z,95272.00
2023-03-29T20:24:37.509Z,95272.56
2023-03-29T20:27:05.057Z,95276.50
2023-03-29T20:29:31.816Z,95273.53
2023-03-29T20:31:58.795Z,95273.41
2023-03-29T20:34:26.028Z,95268.41
2023-03-29T20:36:52.656Z,95264.44
2023-03-29T20:39:19.297Z,95256.78
2023-03-29T20:41:48.478Z,95255.31
2023-03-29T20:44:15.359Z,95255.94
2023-03-29T20:46:42.117Z,95252.22
2023-03-29T20:49:08.681Z,95262.31
2023-03-29T20:51:43.675Z,95261.38
2023-03-29T20:54:10.353Z,95263.63
2023-03-29T20:56:39.025Z,95267.41
2023-03-29T20:59:07.105Z,95265.06
2023-03-29T21:01:33.865Z,95275.56
2023-03-29T21:04:00.621Z,95266.28
2023-03-29T21:06:27.174Z,95268.81
2023-03-29T21:08:53.675Z,95265.63
2023-03-29T21:14:47.468Z,95263.31
2023-03-29T21:17:14.008Z,95265.34
2023-03-29T21:19:51.255Z,95264.75
2023-03-29T21:22:20.736Z,95264.97
2023-03-29T21:24:47.397Z,95269.69
2023-03-29T21:27:13.904Z,95265.47
2023-03-29T21:29:40.447Z,95259.50
2023-03-29T21:32:07.018Z,95253.09
2023-03-29T21:34:34.717Z,95250.69
2023-03-29T21:37:01.383Z,95244.44
2023-03-29T21:39:28.170Z,95243.38
2023-03-29T21:41:54.661Z,95252.47
2023-03-29T21:44:27.781Z,95249.75
2023-03-29T21:46:54.335Z,95250.16
2023-03-29T21:49:20.950Z,95245.13
2023-03-29T21:51:47.460Z,95248.00
2023-03-29T21:54:13.974Z,95242.63
2023-03-29T21:56:40.489Z,95241.66
2023-03-29T21:59:08.240Z,95246.75
2023-03-29T22:01:34.746Z,95248.41
2023-03-29T22:04:01.360Z,95245.16
2023-03-29T22:06:27.845Z,95238.56
2023-03-29T22:11:40.866Z,95222.59
2023-03-29T22:14:07.400Z,95225.63
2023-03-29T22:16:35.243Z,95226.50
2023-03-29T22:19:01.726Z,95227.13
2023-03-29T22:21:29.225Z,95226.97
2023-03-29T22:23:58.499Z,95219.97
2023-03-29T22:26:27.903Z,95210.59
2023-03-29T22:28:54.595Z,95202.06
2023-03-29T22:31:22.436Z,95204.22
2023-03-29T22:33:49.284Z,95210.72
2023-03-29T22:36:16.980Z,95199.25
2023-03-29T22:38:45.467Z,95195.03
2023-03-29T22:41:15.670Z,95190.63
2023-03-29T22:43:42.203Z,95199.69
2023-03-29T22:46:10.862Z,95184.25
2023-03-29T22:48:37.595Z,95183.59
2023-03-29T22:51:04.425Z,95191.91
2023-03-29T22:53:59.258Z,95181.06
2023-03-29T22:56:26.071Z,95187.22
2023-03-29T22:58:52.670Z,95187.81
2023-03-29T23:04:46.273Z,95183.16
2023-03-29T23:19:14.921Z,95177.81
2023-03-29T23:21:41.774Z,95179.31
2023-03-29T23:25:28.999Z,95158.00
2023-03-29T23:27:55.705Z,95158.06
2023-03-29T23:30:22.412Z,95147.28
2023-03-29T23:32:49.750Z,95144.81
2023-03-29T23:35:16.573Z,95126.16
2023-03-29T23:40:18.551Z,95124.44
2023-03-29T23:42:45.994Z,95114.69
2023-03-29T23:45:15.494Z,95122.25
2023-03-29T23:47:43.130Z,95125.25
2023-03-29T23:50:10.876Z,95129.66
2023-03-29T23:52:37.585Z,95125.34
2023-03-29T23:55:04.621Z,95123.47
2023-03-29T23:57:31.117Z,95119.69
2023-03-29T23:59:57.615Z,95114.09
